sensor_id;sensor_type;location;lat;lon;timestamp;pressure;altitude;pressure_sealevel;temperature;humidity
46836;BME280;32573;51.290;6.926;2024-02-15T00:00:32;100404.16;;;11.91;100.00
46836;BME280;32573;51.290;6.926;2024-02-15T00:03:03;100401.53;;;11.91;100.00
46836;BME280;32573;51.290;6.926;2024-02-15T00:05:33;100405.91;;;11.91;100.00
46836;BME280;32573;51.290;6.926;2024-02-15T00:08:04;100401.50;;;11.90;100.00
46836;BME280;32573;51.290;6.926;2024-02-15T00:10:33;100406.75;;;11.90;100.00
46836;BME280;32573;51.290;6.926;2024-02-15T00:13:01;100401.50;;;11.90;100.00
46836;BME280;32573;51.290;6.926;2024-02-15T00:15:30;100400.66;;;11.91;100.00
46836;BME280;32573;51.290;6.926;2024-02-15T00:17:58;100394.50;;;11.90;100.00
46836;BME280;32573;51.290;6.926;2024-02-15T00:20:28;100400.66;;;11.91;100.00
46836;BME280;32573;51.290;6.926;2024-02-15T00:22:56;100407.63;;;11.90;100.00
46836;BME280;32573;51.290;6.926;2024-02-15T00:25:26;100414.59;;;11.90;100.00
46836;BME280;32573;51.290;6.926;2024-02-15T00:27:54;100413.78;;;11.91;100.00
46836;BME280;32573;51.290;6.926;2024-02-15T00:30:22;100419.03;;;11.91;100.00
46836;BME280;32573;51.290;6.926;2024-02-15T00:32:51;100412.88;;;11.90;100.00
46836;BME280;32573;51.290;6.926;2024-02-15T00:35:19;100412.91;;;11.92;100.00
46836;BME280;32573;51.290;6.926;2024-02-15T00:37:50;100419.03;;;11.91;100.00
46836;BME280;32573;51.290;6.926;2024-02-15T00:40:19;100415.53;;;11.92;100.00
46836;BME280;32573;51.290;6.926;2024-02-15T00:42:48;100410.28;;;11.92;100.00
46836;BME280;32573;51.290;6.926;2024-02-15T00:45:16;100413.84;;;11.94;100.00
46836;BME280;32573;51.290;6.926;2024-02-15T00:47:44;100406.81;;;11.93;100.00
46836;BME280;32573;51.290;6.926;2024-02-15T00:50:13;100412.06;;;11.93;100.00
46836;BME280;32573;51.290;6.926;2024-02-15T00:52:41;100410.34;;;11.93;100.00
46836;BME280;32573;51.290;6.926;2024-02-15T00:55:11;100412.06;;;11.93;100.00
46836;BME280;32573;51.290;6.926;2024-02-15T00:57:39;100406.81;;;11.93;100.00
46836;BME280;32573;51.290;6.926;2024-02-15T01:00:08;100408.59;;;11.94;100.00
46836;BME280;32573;51.290;6.926;2024-02-15T01:02:37;100412.06;;;11.93;100.00
46836;BME280;32573;51.290;6.926;2024-02-15T01:05:06;100404.25;;;11.94;100.00
46836;BME280;32573;51.290;6.926;2024-02-15T01:07:38;100406.88;;;11.94;100.00
46836;BME280;32573;51.290;6.926;2024-02-15T01:10:08;100409.50;;;11.94;100.00
46836;BME280;32573;51.290;6.926;2024-02-15T01:12:38;100401.63;;;11.94;100.00
46836;BME280;32573;51.290;6.926;2024-02-15T01:15:07;100406.91;;;11.96;100.00
46836;BME280;32573;51.290;6.926;2024-02-15T01:17:35;100399.00;;;11.94;100.00
46836;BME280;32573;51.290;6.926;2024-02-15T01:20:04;100403.34;;;11.94;100.00
46836;BME280;32573;51.290;6.926;2024-02-15T01:22:33;100402.50;;;11.95;100.00
46836;BME280;32573;51.290;6.926;2024-02-15T01:25:02;100395.50;;;11.95;100.00
46836;BME280;32573;51.290;6.926;2024-02-15T01:27:31;100394.63;;;11.95;100.00
46836;BME280;32573;51.290;6.926;2024-02-15T01:30:00;100388.50;;;11.94;100.00
46836;BME280;32573;51.290;6.926;2024-02-15T01:32:29;100389.38;;;11.95;100.00
46836;BME280;32573;51.290;6.926;2024-02-15T01:34:58;100395.50;;;11.95;100.00
46836;BME280;32573;51.290;6.926;2024-02-15T01:37:26;100387.63;;;11.94;100.00
46836;BME280;32573;51.290;6.926;2024-02-15T01:39:54;100388.50;;;11.94;100.00
46836;BME280;32573;51.290;6.926;2024-02-15T01:42:23;100388.50;;;11.94;100.00
46836;BME280;32573;51.290;6.926;2024-02-15T01:44:51;100385.00;;;11.94;100.00
46836;BME280;32573;51.290;6.926;2024-02-15T01:47:21;100391.13;;;11.94;100.00
46836;BME280;32573;51.290;6.926;2024-02-15T01:49:52;100373.63;;;11.93;100.00
46836;BME280;32573;51.290;6.926;2024-02-15T01:52:21;100371.88;;;11.94;100.00
46836;BME280;32573;51.290;6.926;2024-02-15T01:54:51;100377.13;;;11.94;100.00
46836;BME280;32573;51.290;6.926;2024-02-15T01:57:20;100371.88;;;11.94;100.00
46836;BME280;32573;51.290;6.926;2024-02-15T01:59:50;100373.66;;;11.95;100.00
46836;BME280;32573;51.290;6.926;2024-02-15T02:02:25;100378.00;;;11.94;100.00
46836;BME280;32573;51.290;6.926;2024-02-15T02:04:57;100374.53;;;11.95;100.00
46836;BME280;32573;51.290;6.926;2024-02-15T02:07:25;100371.03;;;11.95;100.00
46836;BME280;32573;51.290;6.926;2024-02-15T02:09:54;100371.03;;;11.95;100.00
46836;BME280;32573;51.290;6.926;2024-02-15T02:12:22;100378.06;;;11.96;100.00
46836;BME280;32573;51.290;6.926;2024-02-15T02:14:52;100371.03;;;11.95;100.00
46836;BME280;32573;51.290;6.926;2024-02-15T02:17:22;100365.81;;;11.96;100.00
46836;BME280;32573;51.290;6.926;2024-02-15T02:19:54;100369.28;;;11.95;100.00
46836;BME280;32573;51.290;6.926;2024-02-15T02:22:24;100363.16;;;11.95;100.00
46836;BME280;32573;51.290;6.926;2024-02-15T02:24:59;100354.41;;;11.94;100.00
46836;BME280;32573;51.290;6.926;2024-02-15T02:27:27;100358.78;;;11.95;100.00
46836;BME280;32573;51.290;6.926;2024-02-15T02:29:57;100351.78;;;11.94;100.00
46836;BME280;32573;51.290;6.926;2024-02-15T02:32:26;100353.53;;;11.95;100.00
46836;BME280;32573;51.290;6.926;2024-02-15T02:34:56;100349.19;;;11.96;100.00
46836;BME280;32573;51.290;6.926;2024-02-15T02:37:24;100347.47;;;11.96;100.00
46836;BME280;32573;51.290;6.926;2024-02-15T02:39:53;100346.59;;;11.97;100.00
46836;BME280;32573;51.290;6.926;2024-02-15T02:42:23;100348.34;;;11.97;100.00
46836;BME280;32573;51.290;6.926;2024-02-15T02:44:51;100343.09;;;11.97;100.00
46836;BME280;32573;51.290;6.926;2024-02-15T02:47:19;100337.84;;;11.97;100.00
46836;BME280;32573;51.290;6.926;2024-02-15T02:49:48;100343.09;;;11.97;100.00
46836;BME280;32573;51.290;6.926;2024-02-15T02:52:17;100330.84;;;11.97;100.00
46836;BME280;32573;51.290;6.926;2024-02-15T02:54:45;100333.47;;;11.97;100.00
46836;BME280;32573;51.290;6.926;2024-02-15T02:57:13;100341.41;;;11.99;100.00
46836;BME280;32573;51.290;6.926;2024-02-15T02:59:43;100339.59;;;11.98;100.00
46836;BME280;32573;51.290;6.926;2024-02-15T03:02:12;100332.66;;;11.98;100.00
46836;BME280;32573;51.290;6.926;2024-02-15T03:04:40;100331.75;;;11.98;100.00
46836;BME280;32573;51.290;6.926;2024-02-15T03:07:08;100330.91;;;11.99;100.00
46836;BME280;32573;51.290;6.926;2024-02-15T03:09:37;100326.53;;;11.99;100.00
46836;BME280;32573;51.290;6.926;2024-02-15T03:12:05;100317.78;;;11.99;100.00
46836;BME280;32573;51.290;6.926;2024-02-15T03:14:34;100323.91;;;11.99;100.00
46836;BME280;32573;51.290;6.926;2024-02-15T03:17:04;100322.16;;;11.98;100.00
46836;BME280;32573;51.290;6.926;2024-02-15T03:19:33;100315.16;;;11.99;100.00
46836;BME280;32573;51.290;6.926;2024-02-15T03:22:01;100312.53;;;11.99;100.00
46836;BME280;32573;51.290;6.926;2024-02-15T03:24:29;100310.81;;;11.99;100.00
46836;BME280;32573;51.290;6.926;2024-02-15T03:26:58;100309.03;;;11.98;100.00
46836;BME280;32573;51.290;6.926;2024-02-15T03:29:27;100303.78;;;11.98;100.00
46836;BME280;32573;51.290;6.926;2024-02-15T03:31:56;100304.63;;;11.97;100.00
46836;BME280;32573;51.290;6.926;2024-02-15T03:34:26;100295.00;;;11.98;100.00
46836;BME280;32573;51.290;6.926;2024-02-15T03:36:54;100302.88;;;11.98;100.00
46836;BME280;32573;51.290;6.926;2024-02-15T03:39:23;100304.69;;;11.99;100.00
46836;BME280;32573;51.290;6.926;2024-02-15T03:41:51;100307.25;;;11.97;100.00
46836;BME280;32573;51.290;6.926;2024-02-15T03:44:20;100308.13;;;11.98;100.00
46836;BME280;32573;51.290;6.926;2024-02-15T03:46:49;100300.25;;;11.98;100.00
46836;BME280;32573;51.290;6.926;2024-02-15T03:49:19;100302.88;;;11.98;100.00
46836;BME280;32573;51.290;6.926;2024-02-15T03:51:50;100298.50;;;11.97;100.00
46836;BME280;32573;51.290;6.926;2024-02-15T03:54:18;100304.63;;;11.97;100.00
46836;BME280;32573;51.290;6.926;2024-02-15T03:56:47;100302.00;;;11.97;100.00
46836;BME280;32573;51.290;6.926;2024-02-15T03:59:19;100305.50;;;11.98;100.00
46836;BME280;32573;51.290;6.926;2024-02-15T04:01:53;100305.50;;;11.98;100.00
46836;BME280;32573;51.290;6.926;2024-02-15T04:04:22;100305.50;;;11.98;100.00
46836;BME280;32573;51.290;6.926;2024-02-15T04:06:52;100307.25;;;11.97;100.00
46836;BME280;32573;51.290;6.926;2024-02-15T04:09:21;100309.88;;;11.97;100.00
46836;BME280;32573;51.290;6.926;2024-02-15T04:11:49;100310.75;;;11.98;100.00
46836;BME280;32573;51.290;6.926;2024-02-15T04:14:20;100318.63;;;11.98;100.00
46836;BME280;32573;51.290;6.926;2024-02-15T04:16:49;100307.31;;;11.99;100.00
46836;BME280;32573;51.290;6.926;2024-02-15T04:19:17;100302.88;;;11.98;100.00
46836;BME280;32573;51.290;6.926;2024-02-15T04:21:47;100289.75;;;11.98;100.00
46836;BME280;32573;51.290;6.926;2024-02-15T04:24:16;100289.75;;;11.98;100.00
46836;BME280;32573;51.290;6.926;2024-02-15T04:26:45;100295.00;;;11.98;100.00
46836;BME280;32573;51.290;6.926;2024-02-15T04:29:15;100299.38;;;11.97;100.00
46836;BME280;32573;51.290;6.926;2024-02-15T04:31:44;100295.00;;;11.98;100.00
46836;BME280;32573;51.290;6.926;2024-02-15T04:34:16;100307.31;;;11.99;100.00
46836;BME280;32573;51.290;6.926;2024-02-15T04:36:46;100305.50;;;11.98;100.00
46836;BME280;32573;51.290;6.926;2024-02-15T04:39:18;100308.13;;;11.98;100.00
46836;BME280;32573;51.290;6.926;2024-02-15T04:41:51;100300.25;;;11.98;100.00
46836;BME280;32573;51.290;6.926;2024-02-15T04:44:19;100295.00;;;11.98;100.00
46836;BME280;32573;51.290;6.926;2024-02-15T04:46:48;100300.25;;;11.98;100.00
46836;BME280;32573;51.290;6.926;2024-02-15T04:49:17;100296.75;;;11.97;100.00
46836;BME280;32573;51.290;6.926;2024-02-15T04:51:46;100303.78;;;11.98;100.00
46836;BME280;32573;51.290;6.926;2024-02-15T04:54:14;100282.81;;;12.00;100.00
46836;BME280;32573;51.290;6.926;2024-02-15T04:56:46;100288.94;;;11.99;100.00
46836;BME280;32573;51.290;6.926;2024-02-15T04:59:15;100297.69;;;11.99;100.00
46836;BME280;32573;51.290;6.926;2024-02-15T05:01:43;100296.81;;;11.99;100.00
46836;BME280;32573;51.290;6.926;2024-02-15T05:04:12;100295.13;;;12.01;100.00
46836;BME280;32573;51.290;6.926;2024-02-15T05:06:41;100285.50;;;12.01;100.00
46836;BME280;32573;51.290;6.926;2024-02-15T05:09:09;100281.13;;;12.02;100.00
46836;BME280;32573;51.290;6.926;2024-02-15T05:11:38;100286.38;;;12.02;100.00
46836;BME280;32573;51.290;6.926;2024-02-15T05:14:11;100279.38;;;12.02;100.00
46836;BME280;32573;51.290;6.926;2024-02-15T05:16:46;100284.63;;;12.02;100.00
46836;BME280;32573;51.290;6.926;2024-02-15T05:19:15;100277.66;;;12.03;100.00
46836;BME280;32573;51.290;6.926;2024-02-15T05:21:44;100278.56;;;12.03;100.00
46836;BME280;32573;51.290;6.926;2024-02-15T05:24:13;100268.94;;;12.04;100.00
46836;BME280;32573;51.290;6.926;2024-02-15T05:26:44;100274.19;;;12.04;100.00
46836;BME280;32573;51.290;6.926;2024-02-15T05:29:15;100275.94;;;12.05;100.00
46836;BME280;32573;51.290;6.926;2024-02-15T05:31:44;100277.69;;;12.04;100.00
46836;BME280;32573;51.290;6.926;2024-02-15T05:34:12;100278.56;;;12.05;100.00
46836;BME280;32573;51.290;6.926;2024-02-15T05:36:41;100278.56;;;12.05;100.00
46836;BME280;32573;51.290;6.926;2024-02-15T05:39:09;100273.31;;;12.05;100.00
46836;BME280;32573;51.290;6.926;2024-02-15T05:41:41;100289.13;;;12.06;100.00
46836;BME280;32573;51.290;6.926;2024-02-15T05:44:11;100283.88;;;12.06;100.00
46836;BME280;32573;51.290;6.926;2024-02-15T05:46:45;100277.75;;;12.06;100.00
46836;BME280;32573;51.290;6.926;2024-02-15T05:49:14;100268.06;;;12.05;100.00
46836;BME280;32573;51.290;6.926;2024-02-15T05:51:44;100275.94;;;12.05;100.00
46836;BME280;32573;51.290;6.926;2024-02-15T05:54:14;100265.47;;;12.05;100.00
46836;BME280;32573;51.290;6.926;2024-02-15T05:56:43;100265.47;;;12.05;100.00
46836;BME280;32573;51.290;6.926;2024-02-15T05:59:11;100261.06;;;12.04;100.00
46836;BME280;32573;51.290;6.926;2024-02-15T06:01:42;100263.69;;;12.04;100.00
46836;BME280;32573;51.290;6.926;2024-02-15T06:04:12;100258.44;;;12.04;100.00
46836;BME280;32573;51.290;6.926;2024-02-15T06:06:41;100261.94;;;12.04;100.00
46836;BME280;32573;51.290;6.926;2024-02-15T06:09:10;100263.69;;;12.04;100.00
46836;BME280;32573;51.290;6.926;2024-02-15T06:11:38;100261.06;;;12.04;100.00
46836;BME280;32573;51.290;6.926;2024-02-15T06:14:06;100260.19;;;12.03;100.00
46836;BME280;32573;51.290;6.926;2024-02-15T06:16:41;100267.19;;;12.04;100.00
46836;BME280;32573;51.290;6.926;2024-02-15T06:19:11;100271.56;;;12.04;100.00
46836;BME280;32573;51.290;6.926;2024-02-15T06:21:41;100273.31;;;12.03;100.00
46836;BME280;32573;51.290;6.926;2024-02-15T06:24:09;100270.69;;;12.03;100.00
46836;BME280;32573;51.290;6.926;2024-02-15T06:26:38;100275.06;;;12.04;100.00
46836;BME280;32573;51.290;6.926;2024-02-15T06:29:06;100271.56;;;12.04;100.00
46836;BME280;32573;51.290;6.926;2024-02-15T06:31:52;100279.44;;;12.04;100.00
46836;BME280;32573;51.290;6.926;2024-02-15T06:34:39;100266.31;;;12.04;100.00
46836;BME280;32573;51.290;6.926;2024-02-15T06:37:37;100275.94;;;12.05;100.00
46836;BME280;32573;51.290;6.926;2024-02-15T06:40:24;100265.47;;;12.05;100.00
46836;BME280;32573;51.290;6.926;2024-02-15T06:42:52;100258.44;;;12.04;100.00
46836;BME280;32573;51.290;6.926;2024-02-15T06:45:20;100264.56;;;12.04;100.00
46836;BME280;32573;51.290;6.926;2024-02-15T06:47:50;100259.28;;;12.03;100.00
46836;BME280;32573;51.290;6.926;2024-02-15T06:50:19;100270.69;;;12.05;100.00
46836;BME280;32573;51.290;6.926;2024-02-15T06:52:48;100273.31;;;12.05;100.00
46836;BME280;32573;51.290;6.926;2024-02-15T06:55:18;100264.56;;;12.04;100.00
46836;BME280;32573;51.290;6.926;2024-02-15T06:57:49;100267.19;;;12.04;100.00
46836;BME280;32573;51.290;6.926;2024-02-15T07:00:17;100268.94;;;12.04;100.00
46836;BME280;32573;51.290;6.926;2024-02-15T07:02:46;100270.69;;;12.05;100.00
46836;BME280;32573;51.290;6.926;2024-02-15T07:05:15;100268.97;;;12.05;100.00
46836;BME280;32573;51.290;6.926;2024-02-15T07:07:45;100267.25;;;12.06;100.00
46836;BME280;32573;51.290;6.926;2024-02-15T07:10:14;100275.94;;;12.05;100.00
46836;BME280;32573;51.290;6.926;2024-02-15T07:12:43;100265.47;;;12.05;100.00
46836;BME280;32573;51.290;6.926;2024-02-15T07:15:12;100266.34;;;12.05;100.00
46836;BME280;32573;51.290;6.926;2024-02-15T07:17:40;100272.50;;;12.06;100.00
46836;BME280;32573;51.290;6.926;2024-02-15T07:20:11;100268.13;;;12.06;100.00
46836;BME280;32573;51.290;6.926;2024-02-15T07:22:45;100263.75;;;12.07;100.00
46836;BME280;32573;51.290;6.926;2024-02-15T07:25:14;100262.88;;;12.06;100.00
46836;BME280;32573;51.290;6.926;2024-02-15T07:27:42;100257.63;;;12.06;100.00
46836;BME280;32573;51.290;6.926;2024-02-15T07:30:11;100269.00;;;12.07;100.00
46836;BME280;32573;51.290;6.926;2024-02-15T07:32:40;100267.31;;;12.09;100.00
46836;BME280;32573;51.290;6.926;2024-02-15T07:35:09;100273.38;;;12.08;100.00
46836;BME280;32573;51.290;6.926;2024-02-15T07:37:39;100268.19;;;12.09;100.00
46836;BME280;32573;51.290;6.926;2024-02-15T07:40:20;100267.34;;;12.11;100.00
46836;BME280;32573;51.290;6.926;2024-02-15T07:42:50;100269.06;;;12.10;100.00
46836;BME280;32573;51.290;6.926;2024-02-15T07:45:19;100277.00;;;12.12;100.00
46836;BME280;32573;51.290;6.926;2024-02-15T07:47:47;100275.22;;;12.11;100.00
46836;BME280;32573;51.290;6.926;2024-02-15T07:50:18;100278.75;;;12.13;100.00
46836;BME280;32573;51.290;6.926;2024-02-15T07:52:49;100277.88;;;12.12;100.00
46836;BME280;32573;51.290;6.926;2024-02-15T07:55:19;100283.13;;;12.12;100.00
46836;BME280;32573;51.290;6.926;2024-02-15T07:57:48;100277.88;;;12.12;100.00
46836;BME280;32573;51.290;6.926;2024-02-15T08:00:17;100278.75;;;12.13;100.00
46836;BME280;32573;51.290;6.926;2024-02-15T08:02:45;100274.41;;;12.13;100.00
46836;BME280;32573;51.290;6.926;2024-02-15T08:05:14;100277.03;;;12.13;100.00
46836;BME280;32573;51.290;6.926;2024-02-15T08:07:44;100282.28;;;12.13;100.00
46836;BME280;32573;51.290;6.926;2024-02-15T08:10:14;100278.75;;;12.13;100.00
46836;BME280;32573;51.290;6.926;2024-02-15T08:12:45;100279.66;;;12.13;100.00
46836;BME280;32573;51.290;6.926;2024-02-15T08:15:16;100277.03;;;12.13;100.00
46836;BME280;32573;51.290;6.926;2024-02-15T08:17:45;100277.88;;;12.12;100.00
46836;BME280;32573;51.290;6.926;2024-02-15T08:20:14;100267.38;;;12.12;100.00
46836;BME280;32573;51.290;6.926;2024-02-15T08:22:48;100277.91;;;12.14;100.00
46836;BME280;32573;51.290;6.926;2024-02-15T08:25:16;100273.50;;;12.13;100.00
46836;BME280;32573;51.290;6.926;2024-02-15T08:27:48;100270.94;;;12.14;100.00
46836;BME280;32573;51.290;6.926;2024-02-15T08:30:18;100269.19;;;12.15;100.00
46836;BME280;32573;51.290;6.926;2024-02-15T08:32:51;100255.19;;;12.14;100.00
46836;BME280;32573;51.290;6.926;2024-02-15T08:35:22;100259.56;;;12.15;100.00
46836;BME280;32573;51.290;6.926;2024-02-15T08:37:52;100258.72;;;12.16;100.00
46836;BME280;32573;51.290;6.926;2024-02-15T08:40:21;100253.50;;;12.16;100.00
46836;BME280;32573;51.290;6.926;2024-02-15T08:42:54;100254.38;;;12.17;100.00
46836;BME280;32573;51.290;6.926;2024-02-15T08:45:23;100255.25;;;12.17;100.00
46836;BME280;32573;51.290;6.926;2024-02-15T08:47:51;100244.75;;;12.17;100.00
46836;BME280;32573;51.290;6.926;2024-02-15T08:50:20;100244.75;;;12.17;100.00
46836;BME280;32573;51.290;6.926;2024-02-15T08:52:51;100251.78;;;12.18;100.00
46836;BME280;32573;51.290;6.926;2024-02-15T08:55:19;100243.06;;;12.19;100.00
46836;BME280;32573;51.290;6.926;2024-02-15T08:57:51;100240.47;;;12.21;100.00
46836;BME280;32573;51.290;6.926;2024-02-15T09:00:21;100236.94;;;12.20;100.00
46836;BME280;32573;51.290;6.926;2024-02-15T09:02:49;100225.63;;;12.23;100.00
46836;BME280;32573;51.290;6.926;2024-02-15T09:05:18;100227.41;;;12.24;100.00
46836;BME280;32573;51.290;6.926;2024-02-15T09:07:49;100228.28;;;12.24;100.00
46836;BME280;32573;51.290;6.926;2024-02-15T09:10:18;100227.44;;;12.25;100.00
46836;BME280;32573;51.290;6.926;2024-02-15T09:12:49;100227.47;;;12.27;100.00
46836;BME280;32573;51.290;6.926;2024-02-15T09:15:18;100226.59;;;12.28;100.00
46836;BME280;32573;51.290;6.926;2024-02-15T09:17:47;100238.91;;;12.29;100.00
46836;BME280;32573;51.290;6.926;2024-02-15T09:20:17;100223.16;;;12.29;100.00
46836;BME280;32573;51.290;6.926;2024-02-15T09:22:48;100224.06;;;12.31;100.00
46836;BME280;32573;51.290;6.926;2024-02-15T09:25:16;100223.22;;;12.32;100.00
46836;BME280;32573;51.290;6.926;2024-02-15T09:27:45;100236.38;;;12.34;100.00
46836;BME280;32573;51.290;6.926;2024-02-15T09:30:14;100226.75;;;12.34;100.00
46836;BME280;32573;51.290;6.926;2024-02-15T09:32:44;100225.94;;;12.37;100.00
46836;BME280;32573;51.290;6.926;2024-02-15T09:35:14;100227.69;;;12.38;100.00
46836;BME280;32573;51.290;6.926;2024-02-15T09:37:44;100222.50;;;12.39;100.00
46836;BME280;32573;51.290;6.926;2024-02-15T09:40:13;100226.91;;;12.42;100.00
46836;BME280;32573;51.290;6.926;2024-02-15T09:42:43;100225.22;;;12.44;100.00
46836;BME280;32573;51.290;6.926;2024-02-15T09:45:12;100230.53;;;12.47;100.00
46836;BME280;32573;51.290;6.926;2024-02-15T09:47:42;100224.41;;;12.48;100.00
46836;BME280;32573;51.290;6.926;2024-02-15T09:50:13;100225.31;;;12.48;100.00
46836;BME280;32573;51.290;6.926;2024-02-15T09:52:44;100228.88;;;12.52;100.00
46836;BME280;32573;51.290;6.926;2024-02-15T09:55:13;100221.88;;;12.52;100.00
46836;BME280;32573;51.290;6.926;2024-02-15T09:57:43;100224.59;;;12.56;100.00
46836;BME280;32573;51.290;6.926;2024-02-15T10:00:12;100224.63;;;12.57;100.00
46836;BME280;32573;51.290;6.926;2024-02-15T10:02:42;100217.66;;;12.59;100.00
46836;BME280;32573;51.290;6.926;2024-02-15T10:05:12;100221.22;;;12.61;100.00
46836;BME280;32573;51.290;6.926;2024-02-15T10:07:42;100220.38;;;12.64;100.00
46836;BME280;32573;51.290;6.926;2024-02-15T10:10:16;100217.78;;;12.65;100.00
46836;BME280;32573;51.290;6.926;2024-02-15T10:12:46;100225.69;;;12.67;100.00
46836;BME280;32573;51.290;6.926;2024-02-15T10:15:27;100229.28;;;12.70;100.00
46836;BME280;32573;51.290;6.926;2024-02-15T10:18:00;100228.41;;;12.71;100.00
46836;BME280;32573;51.290;6.926;2024-02-15T10:20:29;100221.47;;;12.73;100.00
46836;BME280;32573;51.290;6.926;2024-02-15T10:23:13;100222.38;;;12.76;100.00
46836;BME280;32573;51.290;6.926;2024-02-15T10:25:45;100223.28;;;12.78;100.00
46836;BME280;32573;51.290;6.926;2024-02-15T10:28:20;100225.94;;;12.79;100.00
46836;BME280;32573;51.290;6.926;2024-02-15T10:30:51;100219.81;;;12.79;100.00
46836;BME280;32573;51.290;6.926;2024-02-15T10:33:26;100223.34;;;12.81;100.00
46836;BME280;32573;51.290;6.926;2024-02-15T10:36:05;100221.63;;;12.83;100.00
46836;BME280;32573;51.290;6.926;2024-02-15T10:38:35;100212.91;;;12.84;100.00
46836;BME280;32573;51.290;6.926;2024-02-15T10:41:04;100219.91;;;12.85;100.00
46836;BME280;32573;51.290;6.926;2024-02-15T10:43:33;100211.19;;;12.86;100.00
46836;BME280;32573;51.290;6.926;2024-02-15T10:46:02;100210.31;;;12.87;100.00
46836;BME280;32573;51.290;6.926;2024-02-15T10:48:31;100198.94;;;12.88;100.00
46836;BME280;32573;51.290;6.926;2024-02-15T10:51:03;100199.84;;;12.88;100.00
46836;BME280;32573;51.290;6.926;2024-02-15T10:53:39;100197.25;;;12.90;100.00
46836;BME280;32573;51.290;6.926;2024-02-15T10:56:17;100198.16;;;12.90;100.00
46836;BME280;32573;51.290;6.926;2024-02-15T10:58:48;100195.53;;;12.92;100.00
46836;BME280;32573;51.290;6.926;2024-02-15T11:01:18;100190.28;;;12.92;100.00
46836;BME280;32573;51.290;6.926;2024-02-15T11:03:50;100186.81;;;12.93;100.00
46836;BME280;32573;51.290;6.926;2024-02-15T11:06:20;100193.81;;;12.94;100.00
46836;BME280;32573;51.290;6.926;2024-02-15T11:08:51;100180.72;;;12.95;100.00
46836;BME280;32573;51.290;6.926;2024-02-15T11:11:21;100180.75;;;12.97;100.00
46836;BME280;32573;51.290;6.926;2024-02-15T11:13:49;100185.16;;;12.98;100.00
46836;BME280;32573;51.290;6.926;2024-02-15T11:16:39;100178.16;;;13.00;100.00
46836;BME280;32573;51.290;6.926;2024-02-15T11:19:08;100186.09;;;13.02;100.00
46836;BME280;32573;51.290;6.926;2024-02-15T11:21:53;100172.97;;;13.03;100.00
46836;BME280;32573;51.290;6.926;2024-02-15T11:24:29;100178.28;;;13.06;100.00
46836;BME280;32573;51.290;6.926;2024-02-15T11:26:59;100173.09;;;13.09;100.00
46836;BME280;32573;51.290;6.926;2024-02-15T11:29:48;100172.25;;;13.12;100.00
46836;BME280;32573;51.290;6.926;2024-02-15T11:32:34;100166.16;;;13.14;100.00
46836;BME280;32573;51.290;6.926;2024-02-15T11:35:03;100169.72;;;13.16;100.00
46836;BME280;32573;51.290;6.926;2024-02-15T11:37:57;100170.63;;;13.19;100.00
46836;BME280;32573;51.290;6.926;2024-02-15T11:41:05;100158.41;;;13.21;100.00
46836;BME280;32573;51.290;6.926;2024-02-15T11:43:51;100159.34;;;13.26;100.00
46836;BME280;32573;51.290;6.926;2024-02-15T11:46:27;100159.44;;;13.29;100.00
46836;BME280;32573;51.290;6.926;2024-02-15T11:49:00;100151.59;;;13.32;100.00
46836;BME280;32573;51.290;6.926;2024-02-15T11:51:32;100147.28;;;13.37;100.00
46836;BME280;32573;51.290;6.926;2024-02-15T11:54:05;100149.13;;;13.41;100.00
46836;BME280;32573;51.290;6.926;2024-02-15T11:56:57;100146.56;;;13.47;100.00
46836;BME280;32573;51.290;6.926;2024-02-15T11:59:41;100144.94;;;13.54;100.00
46836;BME280;32573;51.290;6.926;2024-02-15T12:02:42;100140.66;;;13.61;100.00
46836;BME280;32573;51.290;6.926;2024-02-15T12:05:28;100138.13;;;13.67;100.00
46836;BME280;32573;51.290;6.926;2024-02-15T12:08:14;100143.50;;;13.73;100.00
46836;BME280;32573;51.290;6.926;2024-02-15T12:11:00;100140.94;;;13.79;100.00
46836;BME280;32573;51.290;6.926;2024-02-15T12:13:51;100146.25;;;13.85;100.00
46836;BME280;32573;51.290;6.926;2024-02-15T12:16:36;100131.41;;;13.89;100.00
46836;BME280;32573;51.290;6.926;2024-02-15T12:19:22;100128.84;;;13.93;100.00
46836;BME280;32573;51.290;6.926;2024-02-15T12:21:52;100135.03;;;13.97;100.00
46836;BME280;32573;51.290;6.926;2024-02-15T12:24:20;100130.72;;;14.00;100.00
46836;BME280;32573;51.290;6.926;2024-02-15T12:26:59;100125.47;;;14.03;100.00
46836;BME280;32573;51.290;6.926;2024-02-15T12:29:29;100119.38;;;14.06;100.00
46836;BME280;32573;51.290;6.926;2024-02-15T12:31:57;100116.81;;;14.11;100.00
46836;BME280;32573;51.290;6.926;2024-02-15T12:34:26;100115.97;;;14.15;100.00
46836;BME280;32573;51.290;6.926;2024-02-15T12:37:05;100104.63;;;14.19;100.00
46836;BME280;32573;51.290;6.926;2024-02-15T12:39:33;100106.41;;;14.21;100.00
46836;BME280;32573;51.290;6.926;2024-02-15T12:42:02;100103.78;;;14.24;100.00
46836;BME280;32573;51.290;6.926;2024-02-15T12:44:32;100095.94;;;14.26;100.00
46836;BME280;32573;51.290;6.926;2024-02-15T12:47:02;100087.19;;;14.30;100.00
46836;BME280;32573;51.290;6.926;2024-02-15T12:49:30;100097.78;;;14.33;100.00
46836;BME280;32573;51.290;6.926;2024-02-15T12:52:33;100089.03;;;14.36;100.00
46836;BME280;32573;51.290;6.926;2024-02-15T12:55:18;100086.41;;;14.39;100.00
46836;BME280;32573;51.290;6.926;2024-02-15T12:57:48;100082.06;;;14.42;100.00
46836;BME280;32573;51.290;6.926;2024-02-15T13:00:21;100077.72;;;14.46;100.00